createdAt,value
2022-08-16T00:01:35.679Z,96467.63
2022-08-16T00:04:29.352Z,96476.06
2022-08-16T00:07:16.327Z,96476.94
2022-08-16T00:10:06.527Z,96481.31
2022-08-16T00:12:54.710Z,96460.81
2022-08-16T00:15:52.057Z,96466.75
2022-08-16T00:18:41.028Z,96454.91
2022-08-16T00:21:29.138Z,96472.81
2022-08-16T00:24:32.808Z,96471.75
2022-08-16T00:27:22.692Z,96472.34
2022-08-16T00:30:19.478Z,96467.81
2022-08-16T00:33:15.768Z,96467.59
2022-08-16T00:36:02.772Z,96462.72
2022-08-16T00:38:50.620Z,96460.63
2022-08-16T00:41:38.270Z,96470.38
2022-08-16T00:44:32.889Z,96465.84
2022-08-16T00:47:24.788Z,96473.47
2022-08-16T00:50:12.312Z,96477.03
2022-08-16T00:52:59.667Z,96476.25
2022-08-16T00:55:49.546Z,96486.00
2022-08-16T00:58:43.576Z,96484.16
2022-08-16T01:01:32.596Z,96483.41
2022-08-16T01:04:29.290Z,96485.31
2022-08-16T01:07:17.908Z,96489.38
2022-08-16T01:10:05.757Z,96488.63
2022-08-16T01:13:12.130Z,96490.25
2022-08-16T01:16:19.843Z,96488.38
2022-08-16T01:19:21.319Z,96488.72
2022-08-16T01:22:48.497Z,96481.16
2022-08-16T01:25:36.427Z,96481.19
2022-08-16T01:28:30.797Z,96503.41
2022-08-16T01:31:19.452Z,96506.16
2022-08-16T01:34:07.168Z,96506.97
2022-08-16T01:37:04.435Z,96501.56
2022-08-16T01:39:51.238Z,96509.16
2022-08-16T01:42:39.083Z,96514.63
2022-08-16T01:45:40.573Z,96512.75
2022-08-16T01:48:30.471Z,96511.94
2022-08-16T01:51:20.932Z,96502.50
2022-08-16T01:54:15.364Z,96493.81
2022-08-16T01:57:03.548Z,96513.06
2022-08-16T01:59:54.697Z,96512.25
2022-08-16T02:02:42.974Z,96513.06
2022-08-16T02:05:30.484Z,96508.47
2022-08-16T02:08:32.903Z,96508.22
2022-08-16T02:11:25.156Z,96512.56
2022-08-16T02:14:38.967Z,96507.69
2022-08-16T02:17:29.849Z,96519.59
2022-08-16T02:20:18.096Z,96503.09
2022-08-16T02:23:17.331Z,96509.88
2022-08-16T02:26:08.431Z,96512.59
2022-08-16T02:28:55.462Z,96512.59
2022-08-16T02:32:02.799Z,96516.94
2022-08-16T02:34:51.579Z,96510.97
2022-08-16T02:37:52.297Z,96503.94
2022-08-16T02:40:40.288Z,96500.16
2022-08-16T02:43:33.214Z,96505.56
2022-08-16T02:46:20.351Z,96500.72
2022-08-16T02:49:17.440Z,96500.97
2022-08-16T02:52:09.125Z,96496.63
2022-08-16T02:54:56.065Z,96495.31
2022-08-16T02:57:54.609Z,96496.38
2022-08-16T03:00:45.438Z,96489.84
2022-08-16T03:04:41.008Z,96484.97
2022-08-16T03:06:44.611Z,96484.44
2022-08-16T03:09:32.504Z,96492.84
2022-08-16T03:12:30.306Z,96486.59
2022-08-16T03:15:24.059Z,96476.31
2022-08-16T03:18:12.596Z,96477.13
2022-08-16T03:21:19.312Z,96482.78
2022-08-16T03:24:28.756Z,96473.59
2022-08-16T03:27:16.570Z,96472.00
2022-08-16T03:30:16.322Z,96476.28
2022-08-16T03:33:09.724Z,96456.28
2022-08-16T03:36:30.464Z,96463.31
2022-08-16T03:39:14.803Z,96486.53
2022-08-16T03:42:10.638Z,96487.34
2022-08-16T03:45:03.274Z,96485.47
2022-08-16T03:47:50.941Z,96495.47
2022-08-16T03:50:59.455Z,96498.69
2022-08-16T03:53:57.553Z,96504.09
2022-08-16T03:56:56.843Z,96495.41
2022-08-16T03:59:47.032Z,96501.63
2022-08-16T04:02:36.787Z,96497.25
2022-08-16T04:05:27.669Z,96506.47
2022-08-16T04:08:23.308Z,96511.84
2022-08-16T04:11:11.138Z,96516.94
2022-08-16T04:14:01.130Z,96512.88
2022-08-16T04:16:56.300Z,96518.81
2022-08-16T04:19:45.531Z,96512.31
2022-08-16T04:22:33.587Z,96515.25
2022-08-16T04:25:20.737Z,96515.81
2022-08-16T04:28:52.205Z,96518.22
2022-08-16T04:31:16.502Z,96525.22
2022-08-16T04:34:03.968Z,96532.75
2022-08-16T04:36:50.748Z,96519.78
2022-08-16T04:39:46.680Z,96522.75
2022-08-16T04:42:46.055Z,96514.88
2022-08-16T04:45:36.989Z,96530.00
2022-08-16T04:48:32.842Z,96529.69
2022-08-16T04:51:21.077Z,96532.41
2022-08-16T04:54:09.057Z,96540.72
2022-08-16T04:56:55.892Z,96537.50
2022-08-16T04:59:43.779Z,96532.34
2022-08-16T05:02:41.827Z,96539.34
2022-08-16T05:05:30.720Z,96543.13
2022-08-16T05:08:29.022Z,96542.56
2022-08-16T05:11:17.951Z,96550.13
2022-08-16T05:14:06.868Z,96555.75
2022-08-16T05:16:54.456Z,96561.69
2022-08-16T05:19:41.271Z,96556.28
2022-08-16T05:22:44.468Z,96560.03
2022-08-16T05:25:40.646Z,96545.22
2022-08-16T05:28:37.554Z,96549.75
2022-08-16T05:31:29.356Z,96554.63
2022-08-16T05:34:21.241Z,96561.09
2022-08-16T05:37:09.147Z,96562.97
2022-08-16T05:39:55.981Z,96576.44
2022-08-16T05:42:46.086Z,96576.72
2022-08-16T05:45:36.596Z,96580.22
2022-08-16T05:48:26.856Z,96577.00
2022-08-16T05:51:14.184Z,96581.00
2022-08-16T05:54:25.759Z,96580.44
2022-08-16T05:57:13.231Z,96576.94
2022-08-16T06:00:02.593Z,96581.75
2022-08-16T06:02:53.642Z,96576.88
2022-08-16T06:05:41.308Z,96577.94
2022-08-16T06:08:32.079Z,96578.50
2022-08-16T06:11:28.764Z,96568.78
2022-08-16T06:14:16.047Z,96579.88
2022-08-16T06:17:05.324Z,96576.94
2022-08-16T06:19:52.387Z,96575.59
2022-08-16T06:22:39.761Z,96573.72
2022-08-16T06:25:35.869Z,96576.72
2022-08-16T06:28:35.890Z,96582.41
2022-08-16T06:31:24.822Z,96588.91
2022-08-16T06:34:55.085Z,96585.97
2022-08-16T06:37:18.597Z,96590.03
2022-08-16T06:40:12.890Z,96585.19
2022-08-16T06:43:02.926Z,96584.91
2022-08-16T06:45:50.318Z,96593.06
2022-08-16T06:48:37.677Z,96592.56
2022-08-16T06:51:46.035Z,96588.25
2022-08-16T06:54:35.991Z,96596.91
2022-08-16T06:57:22.770Z,96588.00
2022-08-16T07:01:15.072Z,96596.69
2022-08-16T07:10:09.102Z,96577.03
2022-08-16T07:22:05.881Z,96586.75
2022-08-16T07:25:53.098Z,96578.66
2022-08-16T07:32:38.942Z,96591.16
2022-08-16T07:36:11.560Z,96584.16
2022-08-16T07:39:33.719Z,96588.50
2022-08-16T07:50:57.298Z,96592.91
2022-08-16T07:54:32.134Z,96595.94
2022-08-16T07:57:35.046Z,96601.63
2022-08-16T08:00:45.226Z,96588.09
2022-08-16T08:03:39.928Z,96584.56
2022-08-16T08:06:40.424Z,96582.41
2022-08-16T08:09:48.160Z,96591.84
2022-08-16T08:12:37.490Z,96592.41
2022-08-16T08:15:28.719Z,96592.09
2022-08-16T08:22:00.571Z,96583.69
2022-08-16T08:24:48.612Z,96583.06
2022-08-16T08:27:35.374Z,96603.59
2022-08-16T08:30:49.889Z,96598.69
2022-08-16T08:33:29.683Z,96602.97
2022-08-16T08:36:24.978Z,96600.22
2022-08-16T08:39:20.941Z,96594.50
2022-08-16T08:42:07.891Z,96602.03
2022-08-16T08:44:55.555Z,96603.06
2022-08-16T08:47:44.620Z,96606.53
2022-08-16T08:50:42.260Z,96608.59
2022-08-16T08:53:37.861Z,96599.59
2022-08-16T08:56:25.777Z,96597.63
2022-08-16T08:59:16.384Z,96592.91
2022-08-16T09:02:08.846Z,96595.00
2022-08-16T09:04:58.191Z,96602.53
2022-08-16T09:08:00.837Z,96599.72
2022-08-16T09:10:48.657Z,96598.28
2022-08-16T09:13:49.547Z,96600.97
2022-08-16T09:17:01.715Z,96609.63
2022-08-16T09:19:45.031Z,96593.47
2022-08-16T09:22:32.853Z,96598.00
2022-08-16T09:25:26.254Z,96597.06
2022-08-16T09:29:13.997Z,96589.88
2022-08-16T09:31:27.223Z,96597.91
2022-08-16T09:34:19.185Z,96602.72
2022-08-16T09:37:17.584Z,96595.81
2022-08-16T09:40:29.326Z,96599.22
2022-08-16T09:43:44.790Z,96608.28
2022-08-16T09:46:44.772Z,96597.25
2022-08-16T09:49:36.898Z,96599.63
2022-08-16T09:52:24.221Z,96589.97
2022-08-16T09:55:13.958Z,96601.22
2022-08-16T09:58:01.576Z,96592.34
2022-08-16T10:00:49.500Z,96596.88
2022-08-16T10:03:36.685Z,96590.94
2022-08-16T10:06:25.162Z,96589.75
2022-08-16T10:09:20.546Z,96590.69
2022-08-16T10:12:26.528Z,96586.66
2022-08-16T10:15:18.450Z,96599.63
2022-08-16T10:18:56.878Z,96594.00
2022-08-16T10:21:16.773Z,96582.28
2022-08-16T10:24:03.716Z,96589.16
2022-08-16T10:27:20.713Z,96590.09
2022-08-16T10:30:00.144Z,96577.31
2022-08-16T10:32:48.872Z,96574.19
2022-08-16T10:35:46.711Z,96570.47
2022-08-16T10:38:36.719Z,96565.69
2022-08-16T10:41:25.501Z,96564.19
2022-08-16T10:44:15.035Z,96576.00
2022-08-16T10:47:05.128Z,96569.00
2022-08-16T10:49:52.004Z,96573.09
2022-08-16T10:55:40.979Z,96577.91
2022-08-16T10:58:34.532Z,96574.13
2022-08-16T11:01:43.105Z,96566.59
2022-08-16T11:05:05.515Z,96567.34
2022-08-16T11:07:43.321Z,96564.47
2022-08-16T11:13:59.611Z,96566.31
2022-08-16T11:17:11.101Z,96562.31
2022-08-16T11:20:41.652Z,96563.34
2022-08-16T11:23:00.812Z,96561.88
2022-08-16T11:26:23.769Z,96553.69
2022-08-16T11:29:13.711Z,96562.88
2022-08-16T11:32:04.929Z,96559.69
2022-08-16T11:35:10.407Z,96564.09
2022-08-16T11:38:23.296Z,96562.38
2022-08-16T11:41:09.641Z,96553.09
2022-08-16T11:43:56.742Z,96557.78
2022-08-16T11:46:46.704Z,96560.88
2022-08-16T11:49:33.673Z,96547.25
2022-08-16T11:52:21.809Z,96549.97
2022-08-16T11:55:09.560Z,96560.13
2022-08-16T11:57:57.517Z,96562.25
2022-08-16T12:00:51.068Z,96550.69
2022-08-16T12:03:41.897Z,96539.91
2022-08-16T12:06:30.943Z,96546.03
2022-08-16T12:09:20.649Z,96541.03
2022-08-16T12:12:07.683Z,96547.00
2022-08-16T12:15:00.043Z,96539.28
2022-08-16T12:17:47.923Z,96543.31
2022-08-16T12:20:42.447Z,96540.09
2022-08-16T12:23:32.438Z,96540.72
2022-08-16T12:26:19.258Z,96550.75
2022-08-16T12:29:06.137Z,96539.28
2022-08-16T12:32:01.664Z,96552.81
2022-08-16T12:35:01.718Z,96531.88
2022-08-16T12:37:56.550Z,96540.25
2022-08-16T12:40:46.673Z,96547.53
2022-08-16T12:43:34.287Z,96547.22
2022-08-16T12:46:21.855Z,96538.81
2022-08-16T12:49:11.358Z,96535.44
2022-08-16T12:52:02.597Z,96540.09
2022-08-16T12:54:54.751Z,96536.88
2022-08-16T12:57:41.984Z,96537.81
2022-08-16T13:00:33.543Z,96531.69
2022-08-16T13:03:21.651Z,96524.25
2022-08-16T13:06:08.931Z,96529.09
2022-08-16T13:08:58.031Z,96532.47
2022-08-16T13:11:55.412Z,96526.00
2022-08-16T13:14:46.680Z,96530.16
2022-08-16T13:17:33.454Z,96529.22
2022-08-16T13:20:24.024Z,96527.44
2022-08-16T13:23:12.558Z,96533.88
2022-08-16T13:26:05.099Z,96529.34
2022-08-16T13:28:55.126Z,96523.53
2022-08-16T13:31:41.934Z,96526.41
2022-08-16T13:34:28.747Z,96528.03
2022-08-16T13:37:15.539Z,96530.13
2022-08-16T13:40:06.345Z,96528.66
2022-08-16T13:42:56.051Z,96516.56
2022-08-16T13:45:44.848Z,96526.06
2022-08-16T13:48:43.111Z,96525.88
2022-08-16T13:51:32.477Z,96515.72
2022-08-16T13:54:19.242Z,96516.50
2022-08-16T13:57:06.266Z,96520.53
2022-08-16T13:59:58.358Z,96518.25
2022-08-16T14:02:45.677Z,96525.84
2022-08-16T14:05:34.721Z,96519.19
2022-08-16T14:08:26.590Z,96504.03
2022-08-16T14:11:14.792Z,96509.66
2022-08-16T14:14:01.789Z,96514.47
2022-08-16T14:16:52.608Z,96513.97
2022-08-16T14:19:44.989Z,96511.22
2022-08-16T14:22:39.954Z,96497.16
2022-08-16T14:25:29.073Z,96508.31
2022-08-16T14:28:15.919Z,96500.22
2022-08-16T14:31:03.629Z,96494.06
2022-08-16T14:33:50.421Z,96501.28
2022-08-16T14:36:37.692Z,96495.94
2022-08-16T14:39:27.760Z,96495.28
2022-08-16T14:42:20.246Z,96490.25
2022-08-16T14:45:08.037Z,96494.59
2022-08-16T14:47:55.221Z,96497.34
2022-08-16T14:50:42.028Z,96489.91
2022-08-16T14:53:32.753Z,96481.34
2022-08-16T14:56:42.546Z,96486.50
2022-08-16T14:59:26.573Z,96479.06
2022-08-16T15:02:33.879Z,96484.69
2022-08-16T15:05:24.201Z,96485.84
2022-08-16T15:08:11.416Z,96476.81
2022-08-16T15:10:58.202Z,96472.91
2022-08-16T15:13:44.992Z,96465.81
2022-08-16T15:16:31.897Z,96470.63
2022-08-16T15:19:21.748Z,96467.56
2022-08-16T15:22:15.542Z,96473.03
2022-08-16T15:25:29.583Z,96479.00
2022-08-16T15:28:30.592Z,96465.75
2022-08-16T15:31:18.511Z,96470.44
2022-08-16T15:34:05.294Z,96475.13
2022-08-16T15:36:52.186Z,96473.97
2022-08-16T15:39:39.931Z,96464.16
2022-08-16T15:42:28.594Z,96462.50
2022-08-16T15:45:36.116Z,96452.69
2022-08-16T15:48:28.604Z,96458.53
2022-08-16T15:51:16.515Z,96470.63
2022-08-16T15:54:28.897Z,96470.16
2022-08-16T15:57:11.988Z,96461.44
2022-08-16T16:00:04.700Z,96468.44
2022-08-16T16:03:09.050Z,96463.25
2022-08-16T16:05:59.365Z,96471.84
2022-08-16T16:08:47.437Z,96468.63
2022-08-16T16:11:34.237Z,96477.19
2022-08-16T16:14:22.352Z,96473.97
2022-08-16T16:17:14.783Z,96471.88
2022-08-16T16:20:13.776Z,96471.75
2022-08-16T16:23:04.841Z,96467.75
2022-08-16T16:25:58.845Z,96465.66
2022-08-16T16:29:07.814Z,96468.72
2022-08-16T16:31:59.590Z,96461.47
2022-08-16T16:34:46.872Z,96470.84
2022-08-16T16:37:33.677Z,96466.03
2022-08-16T16:40:31.355Z,96463.16
2022-08-16T16:43:19.795Z,96465.41
2022-08-16T16:46:41.950Z,96466.88
2022-08-16T16:49:21.356Z,96474.97
2022-08-16T16:52:10.270Z,96469.00
2022-08-16T16:55:00.239Z,96472.75
2022-08-16T16:58:06.787Z,96459.84
2022-08-16T17:03:41.497Z,96468.22
2022-08-16T17:06:29.096Z,96468.84
2022-08-16T17:09:16.367Z,96460.88
2022-08-16T17:12:05.492Z,96465.06
2022-08-16T17:14:53.528Z,96466.78
2022-08-16T17:20:47.756Z,96473.56
2022-08-16T17:23:59.497Z,96467.75
2022-08-16T17:26:41.952Z,96473.25
2022-08-16T17:29:45.864Z,96472.41
2022-08-16T17:33:28.002Z,96467.28
2022-08-16T17:37:14.309Z,96463.59
2022-08-16T17:39:26.422Z,96460.31
2022-08-16T17:40:54.946Z,96467.94
2022-08-16T17:43:50.961Z,96470.22
2022-08-16T17:50:48.356Z,96476.03
2022-08-16T17:53:48.499Z,96473.47
2022-08-16T17:57:00.526Z,96473.78
2022-08-16T18:00:03.192Z,96491.88
2022-08-16T18:04:02.463Z,96483.94
2022-08-16T18:14:17.004Z,96489.00
2022-08-16T18:17:25.501Z,96503.53
2022-08-16T18:21:01.553Z,96496.16
2022-08-16T18:24:34.666Z,96501.84
2022-08-16T18:27:35.015Z,96496.53
2022-08-16T18:31:20.062Z,96510.41
2022-08-16T18:34:20.353Z,96509.78
2022-08-16T18:37:24.793Z,96501.56
2022-08-16T18:40:32.163Z,96501.44
2022-08-16T18:44:22.586Z,96501.28
2022-08-16T18:46:41.924Z,96503.06
2022-08-16T18:49:28.706Z,96513.75
2022-08-16T18:52:24.900Z,96517.09
2022-08-16T18:55:13.929Z,96511.66
2022-08-16T18:58:02.485Z,96515.84
2022-08-16T19:00:56.375Z,96517.97
2022-08-16T19:03:44.131Z,96513.50
2022-08-16T19:06:31.028Z,96515.75
2022-08-16T19:09:17.902Z,96518.97
2022-08-16T19:12:04.879Z,96519.97
2022-08-16T19:14:51.682Z,96528.81
2022-08-16T19:17:38.455Z,96524.13
2022-08-16T19:20:27.357Z,96531.56
2022-08-16T19:23:20.439Z,96532.19
2022-08-16T19:26:11.112Z,96544.28
2022-08-16T19:29:11.642Z,96544.94
2022-08-16T19:32:00.368Z,96546.38
2022-08-16T19:34:47.478Z,96552.47
2022-08-16T19:37:34.592Z,96544.09
2022-08-16T19:40:38.210Z,96543.13
2022-08-16T19:43:25.395Z,96555.06
2022-08-16T19:46:12.208Z,96559.56
2022-08-16T19:48:59.227Z,96549.41
2022-08-16T19:51:46.916Z,96553.72
2022-08-16T19:54:35.568Z,96554.50
2022-08-16T19:57:27.221Z,96558.19
2022-08-16T20:00:16.934Z,96560.75
2022-08-16T20:03:10.782Z,96577.00
2022-08-16T20:05:58.622Z,96570.56
2022-08-16T20:08:45.395Z,96566.06
2022-08-16T21:29:43.147Z,96617.47
